Time;durP1;ratioP1;P1;durP2;ratioP2;P2;SDS_P1;SDS_P2;PMS_P1;PMS_P2;Temp;Humidity;BMP_temperature;BMP_pressure;BME280_temperature;BME280_humidity;BME280_pressure;Samples;Min_cycle;Max_cycle;Signal;HPM_P1;HPM_P2
2022/10/17 00:01:44;;;;;;;15.73;7.20;;;16.90;99.90;;;;;;5033429;28;20092;-52
2022/10/17 00:04:09;;;;;;;20.38;6.93;;;16.90;99.90;;;;;;5015685;28;20030;-51
2022/10/17 00:06:35;;;;;;;24.58;7.25;;;16.90;99.90;;;;;;5032719;28;20033;-48
2022/10/17 00:09:01;;;;;;;18.90;7.20;;;16.90;99.90;;;;;;5032161;28;20455;-50
2022/10/17 00:11:27;;;;;;;20.42;6.68;;;16.90;99.90;;;;;;5033262;28;20073;-47
2022/10/17 00:13:54;;;;;;;21.25;7.60;;;16.90;99.90;;;;;;5032957;28;20045;-47
2022/10/17 00:16:25;;;;;;;22.52;6.95;;;17.00;99.90;;;;;;5032796;28;20469;-49
2022/10/17 00:18:51;;;;;;;19.90;6.50;;;17.00;99.90;;;;;;5033509;28;20044;-54
2022/10/17 00:21:19;;;;;;;19.42;7.20;;;17.00;99.90;;;;;;5032236;28;20108;-50
2022/10/17 00:23:45;;;;;;;20.05;6.90;;;17.00;99.90;;;;;;5031753;28;20030;-50
2022/10/17 00:26:12;;;;;;;16.70;6.57;;;17.00;99.90;;;;;;5032035;28;20033;-50
2022/10/17 00:28:38;;;;;;;14.35;6.50;;;17.00;99.90;;;;;;5032403;28;20022;-48
2022/10/17 00:31:05;;;;;;;18.92;6.80;;;17.00;99.90;;;;;;5032106;28;20029;-50
2022/10/17 00:33:33;;;;;;;22.83;7.07;;;17.00;99.90;;;;;;5031929;28;20464;-50
2022/10/17 00:36:12;;;;;;;19.00;7.15;;;17.00;99.90;;;;;;5032938;28;20025;-48
2022/10/17 00:38:38;;;;;;;18.25;7.40;;;17.00;99.90;;;;;;5033215;28;20028;-52
2022/10/17 00:41:04;;;;;;;14.82;7.05;;;17.00;99.90;;;;;;5033287;28;20100;-48
2022/10/17 00:43:48;;;;;;;20.17;6.28;;;17.00;99.90;;;;;;5013209;28;20123;-47
2022/10/17 00:46:13;;;;;;;19.35;7.00;;;17.00;99.90;;;;;;5033101;28;20021;-49
2022/10/17 00:48:39;;;;;;;20.73;5.90;;;17.00;99.90;;;;;;5033340;28;20030;-51
2022/10/17 00:51:05;;;;;;;18.63;6.40;;;17.00;99.90;;;;;;5033081;28;20386;-53
2022/10/17 00:53:32;;;;;;;14.23;5.88;;;17.00;99.90;;;;;;5031866;28;20014;-48
2022/10/17 00:55:57;;;;;;;11.27;5.43;;;17.00;99.90;;;;;;5033110;28;20021;-48
2022/10/17 00:58:23;;;;;;;16.45;5.88;;;17.00;99.90;;;;;;5032810;28;20037;-51
2022/10/17 01:00:49;;;;;;;17.60;5.28;;;17.00;99.90;;;;;;5033314;28;20033;-54
2022/10/17 01:03:15;;;;;;;13.63;5.13;;;17.00;99.90;;;;;;5032926;28;20415;-47
2022/10/17 01:05:40;;;;;;;13.98;5.22;;;17.00;99.90;;;;;;5032744;28;20511;-49
2022/10/17 01:08:07;;;;;;;13.45;5.05;;;16.90;99.90;;;;;;5031585;28;20030;-47
2022/10/17 01:11:00;;;;;;;10.90;4.45;;;16.90;99.90;;;;;;5032551;28;20075;-48
2022/10/17 01:13:48;;;;;;;12.43;4.13;;;16.90;99.90;;;;;;5032819;28;20477;-47
2022/10/17 01:16:55;;;;;;;10.57;4.15;;;16.90;99.90;;;;;;5003773;28;20060;-49
2022/10/17 01:19:42;;;;;;;12.95;4.18;;;16.80;99.90;;;;;;5032449;28;20018;-51
2022/10/17 01:22:26;;;;;;;12.32;3.90;;;16.80;99.90;;;;;;5031425;28;20380;-47
2022/10/17 01:25:22;;;;;;;14.68;3.92;;;16.70;99.90;;;;;;5032207;28;20126;-46
2022/10/17 01:28:03;;;;;;;10.23;4.07;;;16.70;99.90;;;;;;5032714;28;20029;-52
2022/10/17 01:31:18;;;;;;;13.68;4.05;;;16.70;99.90;;;;;;5032253;28;20037;-47
2022/10/17 01:33:53;;;;;;;13.38;4.13;;;16.70;99.90;;;;;;5027222;28;20434;-48
2022/10/17 01:36:51;;;;;;;13.68;4.00;;;16.70;99.90;;;;;;5032230;28;20022;-48
2022/10/17 01:39:32;;;;;;;10.05;3.92;;;16.70;99.90;;;;;;5032293;28;20033;-49
2022/10/17 01:42:22;;;;;;;9.63;3.83;;;16.70;99.90;;;;;;5032229;28;20037;-49
2022/10/17 01:45:20;;;;;;;15.32;4.28;;;16.70;99.90;;;;;;5017980;28;20038;-49
2022/10/17 01:47:48;;;;;;;17.77;5.43;;;16.70;99.90;;;;;;5016644;28;20040;-50
2022/10/17 01:50:23;;;;;;;11.38;3.58;;;16.70;99.90;;;;;;5031891;28;20018;-55
2022/10/17 01:52:55;;;;;;;12.48;4.10;;;16.70;99.90;;;;;;5031992;28;20026;-49
2022/10/17 01:55:40;;;;;;;14.55;4.07;;;16.60;99.90;;;;;;5031752;28;20036;-51
2022/10/17 01:58:12;;;;;;;12.80;3.95;;;16.60;99.90;;;;;;5032056;28;20120;-47
2022/10/17 02:00:41;;;;;;;16.60;3.88;;;16.70;99.90;;;;;;5018413;28;20072;-50
2022/10/17 02:03:11;;;;;;;13.85;4.15;;;16.70;99.90;;;;;;5031549;28;20034;-49
2022/10/17 02:05:40;;;;;;;15.07;4.07;;;16.60;99.90;;;;;;5031744;28;20040;-52
2022/10/17 02:08:06;;;;;;;11.00;4.07;;;16.70;99.90;;;;;;5031783;28;20053;-51
2022/10/17 02:10:41;;;;;;;11.52;4.40;;;16.70;99.90;;;;;;5031438;28;20029;-50
2022/10/17 02:13:45;;;;;;;9.00;3.70;;;16.70;99.90;;;;;;5031693;28;20356;-52
2022/10/17 02:16:38;;;;;;;10.43;3.67;;;16.60;99.90;;;;;;5020229;28;20064;-50
2022/10/17 02:19:09;;;;;;;12.07;3.83;;;16.60;99.90;;;;;;5031507;28;20040;-47
2022/10/17 02:21:45;;;;;;;12.77;3.88;;;16.60;99.90;;;;;;5031380;28;20020;-50
2022/10/17 02:24:50;;;;;;;10.50;4.22;;;16.60;99.90;;;;;;5031197;28;20396;-47
2022/10/17 02:27:18;;;;;;;9.55;3.63;;;16.60;99.90;;;;;;5020630;28;20120;-51
2022/10/17 02:29:52;;;;;;;14.65;4.35;;;16.60;99.90;;;;;;5031291;28;20034;-50
2022/10/17 02:32:39;;;;;;;14.18;5.13;;;16.60;99.90;;;;;;5031172;28;20432;-48
2022/10/17 02:35:09;;;;;;;11.90;4.28;;;16.60;99.90;;;;;;5031469;28;20086;-52
2022/10/17 02:37:36;;;;;;;12.98;4.45;;;16.60;99.90;;;;;;5031088;28;20538;-48
2022/10/17 02:40:03;;;;;;;17.08;4.47;;;16.60;99.90;;;;;;5031234;28;20113;-53
2022/10/17 02:42:30;;;;;;;12.02;4.03;;;16.60;99.90;;;;;;5031086;28;20098;-50
2022/10/17 02:44:59;;;;;;;10.77;3.63;;;16.60;99.90;;;;;;5031225;28;20124;-50
2022/10/17 02:47:33;;;;;;;13.57;3.58;;;16.60;99.90;;;;;;5031189;28;20024;-50
2022/10/17 02:49:59;;;;;;;9.55;3.67;;;16.60;99.90;;;;;;5030938;28;20037;-48
2022/10/17 02:52:33;;;;;;;14.73;3.72;;;16.60;99.90;;;;;;5031180;28;20400;-47
2022/10/17 02:55:21;;;;;;;12.48;3.20;;;16.60;99.90;;;;;;5030966;28;20018;-48
2022/10/17 02:57:54;;;;;;;14.98;3.65;;;16.60;99.90;;;;;;5031296;28;20123;-50
2022/10/17 03:00:22;;;;;;;8.35;3.15;;;16.60;99.90;;;;;;5018096;28;20018;-48
2022/10/17 03:02:50;;;;;;;9.50;3.10;;;16.60;99.90;;;;;;5031084;28;20029;-47
2022/10/17 03:05:27;;;;;;;11.93;3.30;;;16.60;99.90;;;;;;5030724;28;20384;-49
2022/10/17 03:07:54;;;;;;;10.88;3.10;;;16.60;99.90;;;;;;5031005;28;20033;-49
2022/10/17 03:10:20;;;;;;;9.55;2.90;;;16.60;99.90;;;;;;5030674;28;20548;-47
2022/10/17 03:12:46;;;;;;;10.02;3.35;;;16.60;99.90;;;;;;5031034;28;20083;-51
2022/10/17 03:15:12;;;;;;;8.43;3.13;;;16.60;99.90;;;;;;5031160;28;20030;-47
2022/10/17 03:17:38;;;;;;;10.75;3.38;;;16.50;99.90;;;;;;5035107;28;20108;-47
2022/10/17 03:20:05;;;;;;;9.00;3.10;;;16.50;99.90;;;;;;5034743;28;20460;-48
2022/10/17 03:22:31;;;;;;;15.43;4.13;;;16.50;99.90;;;;;;5034913;28;20029;-48
2022/10/17 03:24:56;;;;;;;10.90;3.20;;;16.60;99.90;;;;;;5034936;28;20385;-47
2022/10/17 03:27:23;;;;;;;9.50;3.25;;;16.50;99.90;;;;;;5034898;28;20017;-48
2022/10/17 03:29:49;;;;;;;12.88;3.63;;;16.50;99.90;;;;;;5034569;28;20033;-50
2022/10/17 03:32:14;;;;;;;10.93;3.05;;;16.50;99.90;;;;;;5034573;28;20044;-54
2022/10/17 03:34:40;;;;;;;13.43;3.70;;;16.50;99.90;;;;;;5034224;28;20057;-47
2022/10/17 03:37:06;;;;;;;11.35;3.22;;;16.50;99.90;;;;;;5034563;28;20112;-51
2022/10/17 03:39:31;;;;;;;7.53;3.00;;;16.40;99.90;;;;;;5034352;28;20024;-52
2022/10/17 03:41:57;;;;;;;8.60;2.83;;;16.50;99.90;;;;;;5034489;28;20251;-49
2022/10/17 03:44:23;;;;;;;9.00;3.15;;;16.50;99.90;;;;;;5034280;28;20107;-52
2022/10/17 03:46:48;;;;;;;13.32;2.80;;;16.50;99.90;;;;;;5034368;28;20029;-53
2022/10/17 03:49:14;;;;;;;11.80;3.47;;;16.40;99.90;;;;;;5034239;28;20022;-57
2022/10/17 03:51:39;;;;;;;9.70;2.60;;;16.40;99.90;;;;;;5034353;28;20108;-56
2022/10/17 03:54:05;;;;;;;12.85;3.40;;;16.40;99.90;;;;;;5016391;28;20051;-56
2022/10/17 03:56:31;;;;;;;8.95;3.00;;;16.40;99.90;;;;;;5034167;28;20022;-58
2022/10/17 03:58:56;;;;;;;11.30;2.88;;;16.40;99.90;;;;;;5034133;28;20049;-48
2022/10/17 04:01:22;;;;;;;14.73;3.28;;;16.40;99.90;;;;;;5033822;28;20032;-53
2022/10/17 04:03:53;;;;;;;11.70;3.03;;;16.30;99.90;;;;;;5034008;28;20041;-53
2022/10/17 04:06:19;;;;;;;12.80;3.10;;;16.30;99.90;;;;;;5033879;28;20464;-49
2022/10/17 04:08:45;;;;;;;10.98;2.80;;;16.30;99.90;;;;;;5033980;28;20075;-49
2022/10/17 04:11:15;;;;;;;13.27;3.20;;;16.30;99.90;;;;;;5033908;28;20041;-55
2022/10/17 04:13:41;;;;;;;10.85;3.47;;;16.30;99.90;;;;;;5033701;28;20096;-52
2022/10/17 04:16:11;;;;;;;9.80;3.00;;;16.30;99.90;;;;;;5033769;28;20060;-51
2022/10/17 04:18:37;;;;;;;9.45;2.92;;;16.30;99.90;;;;;;5016020;28;20045;-52
2022/10/17 04:21:04;;;;;;;12.52;3.13;;;16.30;99.90;;;;;;5033644;28;20060;-50
2022/10/17 04:23:30;;;;;;;6.90;2.50;;;16.30;99.90;;;;;;5033405;28;20549;-49
2022/10/17 04:25:57;;;;;;;6.38;3.15;;;16.30;99.90;;;;;;5033439;28;20045;-52
2022/10/17 04:28:23;;;;;;;11.82;3.42;;;16.30;99.90;;;;;;5033304;28;20029;-52
2022/10/17 04:31:03;;;;;;;8.18;2.92;;;16.30;99.90;;;;;;5033143;28;20076;-52
2022/10/17 04:33:28;;;;;;;;;;;16.30;99.90;;;;;;5033897;28;20400;-50
2022/10/17 04:36:06;;;;;;;8.98;2.65;;;16.30;99.90;;;;;;5033227;28;19905;-52
2022/10/17 04:38:32;;;;;;;11.18;3.10;;;16.30;99.90;;;;;;5033434;28;20029;-52
2022/10/17 04:41:06;;;;;;;13.93;3.55;;;16.30;99.90;;;;;;5033267;28;20558;-52
2022/10/17 04:43:34;;;;;;;14.73;3.05;;;16.30;99.90;;;;;;5033281;28;20025;-48
2022/10/17 04:46:02;;;;;;;13.98;3.45;;;16.30;99.90;;;;;;5033318;28;20048;-57
2022/10/17 04:48:28;;;;;;;13.25;3.35;;;16.20;99.90;;;;;;5033455;28;20033;-51
2022/10/17 04:50:59;;;;;;;13.60;2.97;;;16.20;99.90;;;;;;5033246;28;20040;-53
2022/10/17 04:53:25;;;;;;;13.05;3.25;;;16.20;99.90;;;;;;5032981;28;20512;-55
2022/10/17 04:55:51;;;;;;;14.40;3.15;;;16.30;99.90;;;;;;5033120;28;20459;-50
2022/10/17 04:58:18;;;;;;;11.52;3.58;;;16.20;99.90;;;;;;5033166;28;20063;-55
2022/10/17 05:00:44;;;;;;;17.20;3.30;;;16.30;99.90;;;;;;5033035;28;20021;-53
2022/10/17 05:03:10;;;;;;;18.23;4.00;;;16.20;99.90;;;;;;5032853;28;20431;-53
2022/10/17 05:05:39;;;;;;;10.50;2.90;;;16.30;99.90;;;;;;5033004;28;20028;-54
2022/10/17 05:08:05;;;;;;;;;;;16.30;99.90;;;;;;5033222;28;20544;-50
2022/10/17 05:10:39;;;;;;;16.17;3.30;;;16.30;99.90;;;;;;5032640;28;20387;-56
2022/10/17 05:13:06;;;;;;;8.88;2.80;;;16.30;99.90;;;;;;5032829;28;20017;-52
2022/10/17 05:15:32;;;;;;;11.77;2.97;;;16.30;99.90;;;;;;5032745;28;20036;-55
2022/10/17 05:17:57;;;;;;;9.60;2.70;;;16.30;99.90;;;;;;5032842;28;20034;-50
2022/10/17 05:20:25;;;;;;;15.13;3.30;;;16.20;99.90;;;;;;5032496;28;20037;-57
2022/10/17 05:22:51;;;;;;;9.02;2.95;;;16.30;99.90;;;;;;5032508;28;20021;-51
2022/10/17 05:25:16;;;;;;;12.65;3.10;;;16.30;99.90;;;;;;5032284;28;20103;-48
2022/10/17 05:27:42;;;;;;;12.20;2.72;;;16.20;99.90;;;;;;5032458;28;20022;-49
2022/10/17 05:30:08;;;;;;;10.73;2.53;;;16.20;99.90;;;;;;5032426;28;20465;-49
2022/10/17 05:32:34;;;;;;;10.35;2.72;;;16.20;99.90;;;;;;5032289;28;20028;-50
2022/10/17 05:34:59;;;;;;;12.52;3.00;;;16.20;99.90;;;;;;5032514;28;20104;-49
2022/10/17 05:37:27;;;;;;;10.25;2.85;;;16.20;99.90;;;;;;5032176;28;20473;-55
2022/10/17 05:39:53;;;;;;;11.30;2.60;;;16.20;99.90;;;;;;5031693;28;20018;-54
2022/10/17 05:42:18;;;;;;;11.00;2.88;;;16.10;99.90;;;;;;5032152;28;20124;-49
2022/10/17 05:44:44;;;;;;;11.43;2.95;;;16.10;99.90;;;;;;5032126;28;20049;-50
2022/10/17 05:47:10;;;;;;;10.20;3.10;;;16.10;99.90;;;;;;5032202;28;20386;-49
2022/10/17 05:49:35;;;;;;;10.88;3.10;;;16.10;99.90;;;;;;5032030;28;20038;-52
2022/10/17 05:52:01;;;;;;;13.88;3.72;;;16.10;99.90;;;;;;5032099;28;20072;-49
2022/10/17 05:54:27;;;;;;;16.92;3.70;;;16.10;99.90;;;;;;5031891;28;20036;-52
2022/10/17 05:56:53;;;;;;;12.48;3.30;;;16.10;99.90;;;;;;5032007;28;20094;-51
2022/10/17 05:59:20;;;;;;;12.90;3.63;;;16.10;99.90;;;;;;5031937;28;20025;-51
2022/10/17 06:01:45;;;;;;;13.57;3.78;;;16.10;99.90;;;;;;5031700;28;20017;-48
2022/10/17 06:04:11;;;;;;;20.38;3.88;;;16.10;99.90;;;;;;5031849;28;20040;-56
2022/10/17 06:06:38;;;;;;;17.80;3.88;;;16.10;99.90;;;;;;5031647;28;20033;-51
2022/10/17 06:09:04;;;;;;;18.42;3.67;;;16.10;99.90;;;;;;5031681;28;20052;-51
2022/10/17 06:11:29;;;;;;;19.60;3.55;;;16.20;99.90;;;;;;5031575;28;20057;-49
2022/10/17 06:13:55;;;;;;;12.48;3.45;;;16.10;99.90;;;;;;5031662;28;20417;-53
2022/10/17 06:16:21;;;;;;;16.25;3.90;;;16.10;99.90;;;;;;5031636;28;20033;-52
2022/10/17 06:18:47;;;;;;;12.98;3.50;;;16.10;99.90;;;;;;5031500;28;20483;-48
2022/10/17 06:21:17;;;;;;;18.63;3.47;;;16.20;99.90;;;;;;5031499;28;20029;-50
2022/10/17 06:23:43;;;;;;;13.68;3.40;;;16.10;99.90;;;;;;5031341;28;20044;-47
2022/10/17 06:26:09;;;;;;;11.73;3.42;;;16.10;99.90;;;;;;5031378;28;20809;-50
2022/10/17 06:28:35;;;;;;;14.15;3.55;;;16.10;99.90;;;;;;5031193;28;20033;-51
2022/10/17 06:31:15;;;;;;;25.80;4.15;;;16.10;99.90;;;;;;5031357;28;20061;-48
2022/10/17 06:33:41;;;;;;;18.95;3.42;;;16.10;99.90;;;;;;5031309;28;20032;-50
2022/10/17 06:36:10;;;;;;;17.13;3.45;;;16.10;99.90;;;;;;5031105;28;20022;-52
2022/10/17 06:38:36;;;;;;;21.45;3.83;;;16.10;99.90;;;;;;5031243;28;20026;-48
2022/10/17 06:41:06;;;;;;;12.40;3.30;;;16.10;99.90;;;;;;5031136;28;20041;-54
2022/10/17 06:43:32;;;;;;;19.95;4.63;;;16.10;99.90;;;;;;5031099;28;20069;-50
2022/10/17 06:45:57;;;;;;;17.85;4.63;;;16.00;99.90;;;;;;5030285;28;20103;-49
2022/10/17 06:48:23;;;;;;;10.48;3.30;;;16.00;99.90;;;;;;5030996;28;20159;-49
2022/10/17 06:50:49;;;;;;;13.68;3.90;;;16.10;99.90;;;;;;5029873;28;20026;-50
2022/10/17 06:53:14;;;;;;;18.98;3.67;;;16.00;99.90;;;;;;5030831;28;20026;-52
2022/10/17 06:55:41;;;;;;;12.82;4.18;;;16.00;99.90;;;;;;5030999;28;20032;-52
2022/10/17 06:58:07;;;;;;;17.80;3.58;;;16.00;99.90;;;;;;5030839;28;20037;-51
2022/10/17 07:00:32;;;;;;;19.85;4.05;;;16.00;99.90;;;;;;5030711;28;20026;-50
2022/10/17 07:02:58;;;;;;;17.98;3.83;;;16.00;99.90;;;;;;5031324;28;20025;-48
2022/10/17 07:05:24;;;;;;;15.00;3.78;;;16.00;99.90;;;;;;5030624;28;20034;-51
2022/10/17 07:07:49;;;;;;;17.50;3.90;;;16.00;99.90;;;;;;5030588;28;20037;-50
2022/10/17 07:10:15;;;;;;;14.10;3.17;;;16.00;99.90;;;;;;5030450;28;20455;-49
2022/10/17 07:12:41;;;;;;;14.13;3.00;;;16.00;99.90;;;;;;5030675;28;20099;-48
2022/10/17 07:15:07;;;;;;;10.27;2.92;;;16.00;99.90;;;;;;5029588;28;20033;-47
2022/10/17 07:17:32;;;;;;;16.48;3.60;;;16.00;99.90;;;;;;5030005;28;20022;-52
2022/10/17 07:19:58;;;;;;;10.85;2.35;;;15.90;99.90;;;;;;5029304;28;20056;-48
2022/10/17 07:22:24;;;;;;;13.73;2.58;;;15.90;99.90;;;;;;5029911;28;20056;-50
2022/10/17 07:24:49;;;;;;;9.40;2.00;;;15.90;99.90;;;;;;5029843;28;20048;-47
2022/10/17 07:27:15;;;;;;;13.57;2.65;;;15.90;99.90;;;;;;5029940;28;20037;-51
2022/10/17 07:29:40;;;;;;;8.93;2.40;;;15.90;99.90;;;;;;5029250;28;20104;-48
2022/10/17 07:32:07;;;;;;;11.10;2.17;;;15.80;99.90;;;;;;5028370;28;20018;-45
2022/10/17 07:34:34;;;;;;;12.13;2.20;;;15.80;99.90;;;;;;5028369;28;20037;-47
2022/10/17 07:36:59;;;;;;;11.27;1.85;;;15.80;99.90;;;;;;5015804;28;20024;-51
2022/10/17 07:39:25;;;;;;;8.85;1.73;;;15.70;99.90;;;;;;5021621;28;20042;-50
2022/10/17 07:41:51;;;;;;;10.65;2.05;;;15.70;99.90;;;;;;5030465;28;20030;-47
2022/10/17 07:44:17;;;;;;;7.28;2.00;;;15.60;99.90;;;;;;5030123;28;20488;-47
2022/10/17 07:46:42;;;;;;;6.43;1.85;;;15.70;99.90;;;;;;5030393;28;20029;-51
2022/10/17 07:49:08;;;;;;;5.75;1.58;;;15.60;99.90;;;;;;5030120;28;20029;-51
2022/10/17 07:51:34;;;;;;;5.50;1.33;;;15.60;99.90;;;;;;5028920;28;20040;-47
2022/10/17 07:53:59;;;;;;;8.15;1.23;;;15.60;99.90;;;;;;5029611;28;20029;-47
2022/10/17 07:56:25;;;;;;;7.70;1.27;;;15.60;99.90;;;;;;5026275;28;20025;-48
2022/10/17 07:58:52;;;;;;;6.32;1.05;;;15.60;99.90;;;;;;5029763;28;20020;-55
2022/10/17 08:01:18;;;;;;;4.10;1.20;;;15.60;99.90;;;;;;5029826;28;20473;-48
2022/10/17 08:03:45;;;;;;;5.55;1.05;;;15.50;99.90;;;;;;5032433;28;20104;-52
2022/10/17 08:06:11;;;;;;;4.85;0.90;;;15.50;99.90;;;;;;5032418;28;20810;-50
2022/10/17 08:08:36;;;;;;;3.42;1.02;;;15.50;99.90;;;;;;5033167;28;20049;-48
2022/10/17 08:11:05;;;;;;;5.95;0.95;;;15.50;99.90;;;;;;5033284;28;20072;-49
2022/10/17 08:13:31;;;;;;;8.18;1.17;;;15.40;99.90;;;;;;5033172;28;20112;-45
2022/10/17 08:16:02;;;;;;;5.32;0.90;;;15.40;99.90;;;;;;5032989;28;20112;-47
2022/10/17 08:18:28;;;;;;;5.38;0.90;;;15.40;99.90;;;;;;5033188;28;20104;-51
2022/10/17 08:20:53;;;;;;;2.83;0.90;;;15.40;99.90;;;;;;5033341;28;20445;-51
2022/10/17 08:23:19;;;;;;;6.95;1.35;;;15.40;99.90;;;;;;5033434;28;20097;-49
2022/10/17 08:25:45;;;;;;;5.25;1.00;;;15.40;99.90;;;;;;5032613;28;20041;-44
2022/10/17 08:28:10;;;;;;;10.75;1.52;;;15.40;99.90;;;;;;5032868;28;20044;-54
2022/10/17 08:30:36;;;;;;;9.95;1.52;;;15.50;99.90;;;;;;5032570;28;20057;-47
2022/10/17 08:33:02;;;;;;;3.53;0.93;;;15.60;99.90;;;;;;5028707;28;20064;-50
2022/10/17 08:35:27;;;;;;;3.30;0.90;;;15.70;99.90;;;;;;5029776;28;20381;-49
2022/10/17 08:37:53;;;;;;;6.10;0.82;;;15.80;99.90;;;;;;5029723;28;20500;-47
2022/10/17 08:40:25;;;;;;;5.68;1.00;;;15.80;99.90;;;;;;5032305;28;20083;-52
2022/10/17 08:42:50;;;;;;;6.55;1.08;;;15.80;99.90;;;;;;5031776;28;20029;-46
2022/10/17 08:45:25;;;;;;;7.07;0.85;;;15.70;99.90;;;;;;5032090;28;20029;-50
2022/10/17 08:47:57;;;;;;;5.95;1.20;;;15.80;99.90;;;;;;5032190;28;20511;-49
2022/10/17 08:50:44;;;;;;;7.35;1.00;;;15.80;99.90;;;;;;5027426;28;20087;-56
2022/10/17 08:53:30;;;;;;;7.65;1.50;;;15.90;99.90;;;;;;5032952;28;20020;-52
2022/10/17 08:55:59;;;;;;;9.07;1.42;;;15.90;99.90;;;;;;5019283;28;20478;-49
2022/10/17 08:58:31;;;;;;;13.55;2.53;;;15.90;99.90;;;;;;5032908;28;20026;-48
2022/10/17 09:00:57;;;;;;;9.05;1.05;;;15.90;99.90;;;;;;5032931;28;20128;-49
2022/10/17 09:03:37;;;;;;;13.25;1.45;;;16.10;99.90;;;;;;5032556;28;20520;-50
2022/10/17 09:06:09;;;;;;;9.55;1.23;;;16.10;99.90;;;;;;5032256;28;20033;-54
2022/10/17 09:08:49;;;;;;;10.35;1.45;;;16.20;99.90;;;;;;5031338;28;21380;-54
2022/10/17 09:11:32;;;;;;;13.00;1.73;;;16.30;99.90;;;;;;5024120;28;20113;-54
2022/10/17 09:14:01;;;;;;;11.73;1.30;;;16.50;99.90;;;;;;5030247;28;20380;-52
2022/10/17 09:16:36;;;;;;;11.97;1.83;;;16.60;99.90;;;;;;5032069;28;20033;-52
2022/10/17 09:19:25;;;;;;;12.60;1.35;;;16.60;99.90;;;;;;5014733;28;20035;-55
2022/10/17 09:21:53;;;;;;;;;;;16.70;99.90;;;;;;5032647;28;20075;-52
2022/10/17 09:24:54;;;;;;;10.55;2.17;;;16.70;99.90;;;;;;5032338;28;19916;-56
2022/10/17 09:27:48;;;;;;;11.38;1.98;;;16.80;99.90;;;;;;4998896;28;20034;-52
2022/10/17 09:30:29;;;;;;;12.35;1.83;;;16.90;99.90;;;;;;5032439;28;20029;-54
2022/10/17 09:32:54;;;;;;;13.60;1.90;;;17.00;99.90;;;;;;5032236;28;20025;-52
2022/10/17 09:35:23;;;;;;;9.88;1.33;;;17.10;99.90;;;;;;5032124;28;20376;-48
2022/10/17 09:37:49;;;;;;;12.40;2.25;;;17.20;99.90;;;;;;5031167;28;20033;-54
2022/10/17 09:40:33;;;;;;;11.23;1.88;;;17.30;99.90;;;;;;5032432;28;20063;-54
2022/10/17 09:43:01;;;;;;;12.63;2.17;;;17.50;99.90;;;;;;5032047;28;20029;-49
2022/10/17 09:45:30;;;;;;;28.00;2.08;;;17.60;99.90;;;;;;5030092;28;20045;-54
2022/10/17 09:48:04;;;;;;;11.88;1.90;;;17.70;99.90;;;;;;5030098;28;20037;-49
2022/10/17 09:50:33;;;;;;;12.48;1.85;;;18.00;99.90;;;;;;5029933;28;20051;-53
2022/10/17 09:53:22;;;;;;;12.27;2.10;;;18.70;99.90;;;;;;5029940;28;20029;-55
2022/10/17 09:55:54;;;;;;;12.60;2.10;;;19.00;99.90;;;;;;5029772;28;20025;-51
2022/10/17 09:58:20;;;;;;;10.35;1.67;;;18.80;99.90;;;;;;5029606;28;20520;-52
2022/10/17 10:00:47;;;;;;;12.95;1.60;;;18.70;99.90;;;;;;5031687;28;20025;-51
2022/10/17 10:03:23;;;;;;;12.60;1.98;;;18.60;99.90;;;;;;5031734;28;20053;-51
2022/10/17 10:06:18;;;;;;;11.02;1.92;;;18.80;99.90;;;;;;5031610;28;20388;-52
2022/10/17 10:08:52;;;;;;;9.88;1.80;;;20.00;99.90;;;;;;5024243;28;20034;-55
2022/10/17 10:11:22;;;;;;;10.32;1.38;;;21.00;99.90;;;;;;5031469;28;20030;-51
2022/10/17 10:13:48;;;;;;;13.32;1.63;;;22.20;99.90;;;;;;5029151;28;20031;-53
2022/10/17 10:16:20;;;;;;;16.83;2.03;;;23.10;99.90;;;;;;5029822;28;20495;-52
2022/10/17 10:18:46;;;;;;;12.75;1.85;;;23.90;99.90;;;;;;5028226;28;20044;-51
2022/10/17 10:21:19;;;;;;;14.70;2.25;;;24.20;99.90;;;;;;5025206;28;20052;-50
2022/10/17 10:24:04;;;;;;;10.38;2.05;;;23.60;99.90;;;;;;5029494;28;20069;-55
2022/10/17 10:26:45;;;;;;;10.18;1.65;;;23.10;99.90;;;;;;5030659;28;20029;-48
2022/10/17 10:29:31;;;;;;;13.32;1.98;;;23.60;99.90;;;;;;5027667;28;20040;-50
2022/10/17 10:32:10;;;;;;;10.25;1.85;;;23.90;99.90;;;;;;5028894;28;20128;-51
2022/10/17 10:34:43;;;;;;;11.65;2.15;;;24.10;99.90;;;;;;5029680;28;20056;-48
2022/10/17 10:37:22;;;;;;;10.00;1.85;;;24.00;99.90;;;;;;5029905;28;20037;-52
2022/10/17 10:39:55;;;;;;;9.93;1.90;;;24.70;99.90;;;;;;5024855;28;20029;-47
2022/10/17 10:42:31;;;;;;;9.75;2.00;;;25.10;99.90;;;;;;5029148;28;20547;-49
2022/10/17 10:45:14;;;;;;;9.43;1.70;;;25.20;99.90;;;;;;5028441;28;20024;-50
2022/10/17 10:47:52;;;;;;;10.95;1.98;;;25.50;99.90;;;;;;5025459;28;20428;-48
2022/10/17 10:50:33;;;;;;;9.88;2.00;;;24.80;99.90;;;;;;5024134;28;20040;-49
2022/10/17 10:52:58;;;;;;;18.27;2.60;;;24.60;99.90;;;;;;5028757;28;20429;-47
2022/10/17 10:55:33;;;;;;;11.52;1.88;;;23.80;99.90;;;;;;5025323;28;20164;-47
2022/10/17 10:58:25;;;;;;;11.95;1.92;;;23.00;99.90;;;;;;5024947;28;20025;-51
2022/10/17 11:00:52;;;;;;;13.13;1.80;;;22.10;99.90;;;;;;5025402;28;20520;-54
2022/10/17 11:03:28;;;;;;;12.20;2.30;;;21.90;99.90;;;;;;5030578;28;20026;-56
2022/10/17 11:06:12;;;;;;;13.27;2.17;;;21.90;99.90;;;;;;5030291;28;20361;-53
2022/10/17 11:08:45;;;;;;;13.45;1.95;;;21.70;99.90;;;;;;5004545;28;20776;-53
2022/10/17 11:11:33;;;;;;;9.70;1.60;;;22.10;99.90;;;;;;5023319;28;20128;-54
2022/10/17 11:14:17;;;;;;;11.10;1.95;;;23.20;99.90;;;;;;5025641;28;20033;-52
2022/10/17 11:16:58;;;;;;;11.90;1.75;;;23.90;99.90;;;;;;5025796;28;20040;-51
2022/10/17 11:19:34;;;;;;;12.15;2.45;;;24.10;99.90;;;;;;5024670;28;20401;-48
2022/10/17 11:22:05;;;;;;;10.57;1.73;;;24.00;99.90;;;;;;5028118;28;20038;-48
2022/10/17 11:24:55;;;;;;;9.02;2.00;;;24.10;99.90;;;;;;5028427;28;20072;-55
2022/10/17 11:27:26;;;;;;;11.93;1.65;;;23.80;99.90;;;;;;5027178;28;20025;-54
2022/10/17 11:29:52;;;;;;;10.98;2.10;;;23.60;99.90;;;;;;5029332;28;20045;-51
2022/10/17 11:32:33;;;;;;;13.57;2.80;;;23.70;99.90;;;;;;5028626;28;20181;-55
2022/10/17 11:35:04;;;;;;;9.85;1.95;;;23.80;99.90;;;;;;5028278;28;20453;-53
2022/10/17 11:37:35;;;;;;;15.02;1.98;;;23.80;99.90;;;;;;5026151;28;20498;-54
2022/10/17 11:40:20;;;;;;;14.27;2.05;;;23.70;99.90;;;;;;5014136;28;20030;-52
2022/10/17 11:43:01;;;;;;;11.88;1.90;;;23.80;99.90;;;;;;5033056;28;20041;-53
2022/10/17 11:45:34;;;;;;;10.02;2.40;;;24.00;99.90;;;;;;5033757;28;20071;-54
2022/10/17 11:48:16;;;;;;;10.90;2.08;;;24.40;99.90;;;;;;5033033;28;20032;-50
2022/10/17 11:50:46;;;;;;;10.35;1.88;;;24.40;99.90;;;;;;5033537;28;20124;-51
2022/10/17 11:53:18;;;;;;;13.93;1.92;;;25.00;99.90;;;;;;5031107;28;20028;-49
2022/10/17 11:55:45;;;;;;;12.27;2.10;;;25.50;99.20;;;;;;5031766;28;20033;-53
2022/10/17 11:58:32;;;;;;;15.18;2.25;;;25.00;98.00;;;;;;5031808;28;20021;-53
2022/10/17 12:01:31;;;;;;;10.43;1.98;;;24.00;99.50;;;;;;5020777;28;20033;-50
2022/10/17 12:04:20;;;;;;;11.50;2.53;;;23.00;99.90;;;;;;5031223;28;20044;-56
2022/10/17 12:07:04;;;;;;;;;;;22.80;99.90;;;;;;5033618;28;20025;-57
2022/10/17 12:09:55;;;;;;;14.63;1.60;;;22.80;99.90;;;;;;5028720;28;19940;-59
2022/10/17 12:12:24;;;;;;;10.98;1.88;;;22.70;99.90;;;;;;5027774;28;20037;-59
2022/10/17 12:14:50;;;;;;;11.93;1.90;;;22.70;99.90;;;;;;5029722;28;20044;-60
2022/10/17 12:17:33;;;;;;;12.82;1.95;;;22.80;99.90;;;;;;5021583;28;20492;-50
2022/10/17 12:20:24;;;;;;;11.48;2.15;;;22.70;99.90;;;;;;5029876;28;20037;-48
2022/10/17 12:22:50;;;;;;;18.80;2.65;;;22.00;99.90;;;;;;5031414;28;20036;-46
2022/10/17 12:25:38;;;;;;;11.40;1.88;;;21.40;99.90;;;;;;5030477;28;20045;-47
2022/10/17 12:28:06;;;;;;;11.85;1.63;;;20.80;99.90;;;;;;5030436;28;20028;-56
2022/10/17 12:30:33;;;;;;;15.40;1.73;;;20.50;99.90;;;;;;5029669;28;20156;-49
2022/10/17 12:33:04;;;;;;;11.90;2.22;;;20.40;99.90;;;;;;5029192;28;20500;-51
2022/10/17 12:35:32;;;;;;;12.48;2.15;;;20.10;99.90;;;;;;5010339;28;20045;-52
2022/10/17 12:38:23;;;;;;;14.73;2.20;;;20.00;99.90;;;;;;5027793;28;20049;-53
2022/10/17 12:40:51;;;;;;;13.10;1.92;;;19.90;99.90;;;;;;5025517;28;20514;-52
2022/10/17 12:43:17;;;;;;;13.18;2.22;;;19.80;99.90;;;;;;5028950;28;20545;-53
2022/10/17 12:45:48;;;;;;;11.80;2.10;;;19.90;99.90;;;;;;5031950;28;20037;-48
2022/10/17 12:48:32;;;;;;;13.43;2.45;;;20.10;99.90;;;;;;5028185;28;20017;-50
2022/10/17 12:51:12;;;;;;;11.30;2.00;;;20.10;99.90;;;;;;5032186;28;20051;-55
2022/10/17 12:53:58;;;;;;;8.93;1.80;;;19.90;99.90;;;;;;5023252;28;20033;-55
2022/10/17 12:56:36;;;;;;;13.57;1.98;;;19.80;99.90;;;;;;5029284;28;20033;-48
2022/10/17 12:59:08;;;;;;;9.43;1.63;;;19.90;99.90;;;;;;5031619;28;20116;-52
2022/10/17 13:01:37;;;;;;;12.57;1.98;;;19.90;99.90;;;;;;5031771;28;20241;-52
2022/10/17 13:04:05;;;;;;;15.85;2.50;;;19.90;99.90;;;;;;5020140;28;20014;-49